Cubelles, Spain
Current Conditions -  °F | °C
As of 9:30 PM on Tuesday 25 Nov 2014 (Local Time) from LEBL Reporting Station
Broken Clouds Broken Clouds  
Wind Chill: 64°   Ceiling: 2700
Heat Index: 64°   Visibility: 6mi
Dew Point: 59°   Wind: 2mph
Humidity: 83%   Direction: NA
Pressure: 30"   Gusts: NA
Location:  41.21°N, 1.67°E
Report Text: LEBL 252030Z VRB02KT 9999 FEW019 BKN027 18/15 Q1016 NOSIG
Loading
Personal Weather Stations






























Interactive Weather Map New forecast layout! Learn more

10-Day Weather Forecast

Advertisements
Track Severe Weather on mobile